KPOU/POU METAR and TAF weather

Enter ICAO airport designator
Station Type Date Time Source
KPOU METAR 2019/08/25 12:53 UTC NOAA

KPOU 251253Z 01008KT 10SM CLR 19/13 A3031 RMK AO2 SLP260 T01940133


Station Type Date Time Source
KPOU Decoded METAR 2019/08/25 12:53 UTC NOAA

Station name not available
Aug 25, 2019 - 08:53 AM EDT / 2019.08.25 1253 UTC
Wind: from the N (010 degrees) at 9 MPH (8 KT):0
Visibility: 10 mile(s):0
Sky conditions: clear
Temperature: 66.9 F (19.4 C)
Dew Point: 55.9 F (13.3 C)
Relative Humidity: 67%
Pressure (altimeter): 30.31 in. Hg (1026 hPa)
ob: KPOU 251253Z 01008KT 10SM CLR 19/13 A3031 RMK AO2 SLP260 T01940133
cycle: 13

Station Type Date Time Source
KPOU TAF 2019/08/25 12:34 UTC NOAA

TAF KPOU 251132Z 2512/2612 03006KT P6SM SCT060
FM252200 07005KT P6SM SKC

Example: see airport list